Time;durP1;ratioP1;P1;durP2;ratioP2;P2;SDS_P1;SDS_P2;PMS_P1;PMS_P2;Temp;Humidity;BMP_temperature;BMP_pressure;BME280_temperature;BME280_humidity;BME280_pressure;Samples;Min_cycle;Max_cycle;Signal;HPM_P1;HPM_P2
2023/12/06 00:00:20;;;;;;;2.92;1.77;;;1.20;99.90;;;;;;4432290;32;20065;-59
2023/12/06 00:02:46;;;;;;;0.95;0.95;;;1.30;99.90;;;;;;4431080;32;20081;-58
2023/12/06 00:05:11;;;;;;;12.13;3.90;;;1.30;99.90;;;;;;4429986;32;20418;-56
2023/12/06 00:07:38;;;;;;;1.50;1.40;;;1.30;99.90;;;;;;4430612;32;20128;-59
2023/12/06 00:10:04;;;;;;;2.78;1.87;;;1.40;99.90;;;;;;4431795;32;20097;-58
2023/12/06 00:12:30;;;;;;;1.00;1.00;;;1.40;99.90;;;;;;4433283;32;20068;-58
2023/12/06 00:14:55;;;;;;;2.35;1.77;;;1.40;99.90;;;;;;4432695;32;20293;-59
2023/12/06 00:17:21;;;;;;;1.35;1.25;;;1.40;99.90;;;;;;4427920;32;20073;-58
2023/12/06 00:19:46;;;;;;;3.25;2.03;;;1.50;99.90;;;;;;4429327;32;21189;-59
2023/12/06 00:22:12;;;;;;;2.00;1.50;;;1.50;99.90;;;;;;4432457;32;21182;-58
2023/12/06 00:24:38;;;;;;;1.25;1.15;;;1.50;99.90;;;;;;4429113;32;20084;-59
2023/12/06 00:27:03;;;;;;;0.90;0.90;;;1.40;99.90;;;;;;4431643;32;20090;-60
2023/12/06 00:29:29;;;;;;;2.95;1.62;;;1.50;99.90;;;;;;4427255;32;20134;-59
2023/12/06 00:31:55;;;;;;;1.30;1.20;;;1.40;99.90;;;;;;4425403;32;20579;-61
2023/12/06 00:34:20;;;;;;;1.92;1.52;;;1.50;99.90;;;;;;4423678;32;20069;-58
2023/12/06 00:36:47;;;;;;;8.20;2.12;;;1.50;99.90;;;;;;4427400;32;20143;-58
2023/12/06 00:39:14;;;;;;;1.73;1.58;;;1.50;99.90;;;;;;4428658;32;20085;-59
2023/12/06 00:41:40;;;;;;;1.35;1.25;;;1.50;99.90;;;;;;4429335;32;20120;-59
2023/12/06 00:44:05;;;;;;;4.93;2.92;;;1.50;99.90;;;;;;4427279;32;20065;-58
2023/12/06 00:46:31;;;;;;;1.02;1.02;;;1.40;99.90;;;;;;4430995;32;20140;-60
2023/12/06 00:48:58;;;;;;;1.67;1.58;;;1.50;99.90;;;;;;4428030;32;20073;-58
2023/12/06 00:51:24;;;;;;;3.70;2.45;;;1.40;99.90;;;;;;4431284;32;20120;-58
2023/12/06 00:53:49;;;;;;;1.55;1.45;;;1.40;99.90;;;;;;4431198;32;20740;-59
2023/12/06 00:56:15;;;;;;;0.93;0.93;;;1.40;99.90;;;;;;4429048;32;20062;-59
2023/12/06 00:58:42;;;;;;;4.25;2.72;;;1.50;99.90;;;;;;4430527;32;20093;-58
2023/12/06 01:01:07;;;;;;;0.90;0.90;;;1.50;99.90;;;;;;4432854;32;20077;-59
2023/12/06 01:03:33;;;;;;;1.65;1.55;;;1.50;99.90;;;;;;4433248;32;20120;-58
2023/12/06 01:05:58;;;;;;;3.03;1.85;;;1.50;99.90;;;;;;4430408;32;20513;-59
2023/12/06 01:08:25;;;;;;;3.03;2.55;;;1.40;99.90;;;;;;4429425;32;20073;-58
2023/12/06 01:10:50;;;;;;;4.03;1.25;;;1.50;99.90;;;;;;4431290;32;20093;-59
2023/12/06 01:13:17;;;;;;;6.95;2.85;;;1.60;99.90;;;;;;4430738;32;20116;-60
2023/12/06 01:15:43;;;;;;;4.30;1.85;;;1.50;99.90;;;;;;4427548;32;20074;-58
2023/12/06 01:18:08;;;;;;;1.35;1.25;;;1.50;99.90;;;;;;4431567;32;20069;-58
2023/12/06 01:20:34;;;;;;;0.70;0.70;;;1.50;99.90;;;;;;4428924;32;20491;-58
2023/12/06 01:22:59;;;;;;;2.35;1.15;;;1.50;99.90;;;;;;4432034;32;20066;-61
2023/12/06 01:25:25;;;;;;;3.53;1.62;;;1.50;99.90;;;;;;4430234;32;20062;-60
2023/12/06 01:27:50;;;;;;;1.05;1.05;;;1.40;99.90;;;;;;4430256;32;20446;-59
2023/12/06 01:30:16;;;;;;;6.53;2.35;;;1.40;99.90;;;;;;4431365;32;20134;-60
2023/12/06 01:32:41;;;;;;;0.70;0.70;;;1.50;99.90;;;;;;4432111;32;20489;-60
2023/12/06 01:35:07;;;;;;;1.17;1.17;;;1.40;99.90;;;;;;4430841;32;20120;-59
2023/12/06 01:37:33;;;;;;;3.90;2.22;;;1.50;99.90;;;;;;4430765;32;20438;-60
2023/12/06 01:39:58;;;;;;;3.22;1.37;;;1.50;99.90;;;;;;4430428;32;21115;-60
2023/12/06 01:42:24;;;;;;;1.15;1.15;;;1.40;99.90;;;;;;4429287;32;20085;-58
2023/12/06 01:44:49;;;;;;;1.20;1.10;;;1.50;99.90;;;;;;4429056;32;20074;-60
2023/12/06 01:47:18;;;;;;;5.00;2.55;;;1.50;99.90;;;;;;4430977;32;20215;-58
2023/12/06 01:49:44;;;;;;;10.57;2.90;;;1.50;99.90;;;;;;4430992;32;20085;-56
2023/12/06 01:52:09;;;;;;;6.32;2.25;;;1.50;99.90;;;;;;4430527;32;20061;-57
2023/12/06 01:54:35;;;;;;;6.62;2.15;;;1.40;99.90;;;;;;4430280;32;20077;-58
2023/12/06 01:57:01;;;;;;;2.70;1.62;;;1.50;99.90;;;;;;4430191;32;20122;-61
2023/12/06 01:59:27;;;;;;;0.80;0.80;;;1.50;99.90;;;;;;4429010;32;20069;-61
2023/12/06 02:01:52;;;;;;;1.50;1.40;;;1.50;99.90;;;;;;4427472;32;20085;-60
2023/12/06 02:04:18;;;;;;;3.92;2.22;;;1.50;99.90;;;;;;4416040;32;20097;-60
2023/12/06 02:06:44;;;;;;;1.30;1.23;;;1.50;99.90;;;;;;4430955;32;20056;-61
2023/12/06 02:09:12;;;;;;;10.60;3.05;;;1.50;99.90;;;;;;4427666;32;20061;-61
2023/12/06 02:11:38;;;;;;;0.80;0.80;;;1.50;99.90;;;;;;4428244;32;20533;-61
2023/12/06 02:14:03;;;;;;;4.60;2.00;;;1.50;99.90;;;;;;4428668;32;20077;-60
2023/12/06 02:16:29;;;;;;;2.35;1.58;;;1.50;99.90;;;;;;4430751;32;20116;-59
2023/12/06 02:18:56;;;;;;;2.97;2.00;;;1.50;99.90;;;;;;4426733;32;20073;-60
2023/12/06 02:21:21;;;;;;;2.50;1.83;;;1.50;99.90;;;;;;4428536;32;20505;-60
2023/12/06 02:23:49;;;;;;;1.10;1.10;;;1.50;99.90;;;;;;4427237;32;20082;-59
2023/12/06 02:26:14;;;;;;;4.53;1.92;;;1.60;99.90;;;;;;4427550;32;20394;-58
2023/12/06 02:28:40;;;;;;;2.08;1.40;;;1.50;99.90;;;;;;4423968;32;20142;-60
2023/12/06 02:31:05;;;;;;;2.25;1.60;;;1.60;99.90;;;;;;4428149;32;20058;-59
2023/12/06 02:33:33;;;;;;;29.25;1.67;;;1.60;99.90;;;;;;4424581;32;20505;-61
2023/12/06 02:36:01;;;;;;;9.75;2.58;;;1.50;99.90;;;;;;4428210;32;20504;-59
2023/12/06 02:38:28;;;;;;;3.87;1.60;;;1.50;99.90;;;;;;4425369;32;20325;-59
2023/12/06 02:40:56;;;;;;;4.40;2.75;;;1.60;99.90;;;;;;4428829;32;20093;-60
2023/12/06 02:43:21;;;;;;;1.27;1.17;;;1.60;99.90;;;;;;4414061;32;21068;-60
2023/12/06 02:45:47;;;;;;;4.15;2.90;;;1.60;99.90;;;;;;4440172;32;20061;-59
2023/12/06 02:48:13;;;;;;;0.82;0.82;;;1.60;99.90;;;;;;4429643;32;20549;-58
2023/12/06 02:50:38;;;;;;;6.30;2.65;;;1.60;99.90;;;;;;4427878;32;20517;-59
2023/12/06 02:53:03;;;;;;;3.72;1.30;;;1.60;99.90;;;;;;4426983;32;20089;-60
2023/12/06 02:55:29;;;;;;;2.72;1.45;;;1.70;99.90;;;;;;4429622;32;20115;-59
2023/12/06 02:57:54;;;;;;;0.98;0.98;;;1.60;99.90;;;;;;4427384;32;20439;-59
2023/12/06 03:00:20;;;;;;;2.30;1.50;;;1.60;99.90;;;;;;4428744;32;20173;-59
2023/12/06 03:02:46;;;;;;;0.80;0.80;;;1.60;99.90;;;;;;4424696;32;20062;-59
2023/12/06 03:05:11;;;;;;;1.30;1.23;;;1.60;99.90;;;;;;4429316;32;20056;-61
2023/12/06 03:07:37;;;;;;;1.65;1.55;;;1.60;99.90;;;;;;4426921;32;20508;-59
2023/12/06 03:10:03;;;;;;;1.33;0.88;;;1.60;99.90;;;;;;4426371;32;20119;-60
2023/12/06 03:12:28;;;;;;;1.27;0.93;;;1.60;99.90;;;;;;4426990;32;20082;-57
2023/12/06 03:14:54;;;;;;;2.03;1.87;;;1.50;99.90;;;;;;4430757;32;20064;-59
2023/12/06 03:17:19;;;;;;;1.58;1.48;;;1.50;99.90;;;;;;4432879;32;20255;-60
2023/12/06 03:19:45;;;;;;;0.73;0.73;;;1.60;99.90;;;;;;4433633;32;20069;-60
2023/12/06 03:22:11;;;;;;;1.48;1.37;;;1.60;99.90;;;;;;4430270;32;20093;-56
2023/12/06 03:24:36;;;;;;;1.52;1.42;;;1.60;99.90;;;;;;4431934;32;20431;-59
2023/12/06 03:27:02;;;;;;;2.70;2.33;;;1.70;99.90;;;;;;4431732;32;20086;-58
2023/12/06 03:29:28;;;;;;;22.80;2.83;;;1.60;99.90;;;;;;4431679;32;20208;-59
2023/12/06 03:31:53;;;;;;;1.23;1.12;;;1.60;99.90;;;;;;4429439;32;20600;-58
2023/12/06 03:34:19;;;;;;;8.55;2.33;;;1.60;99.90;;;;;;4430492;32;20215;-59
2023/12/06 03:36:44;;;;;;;1.35;1.25;;;1.60;99.90;;;;;;4429199;32;20565;-59
2023/12/06 03:39:10;;;;;;;4.57;2.72;;;1.70;99.90;;;;;;4429803;32;20077;-59
2023/12/06 03:41:35;;;;;;;0.70;0.70;;;1.70;99.90;;;;;;4430905;32;20437;-60
2023/12/06 03:44:00;;;;;;;3.08;1.73;;;1.70;99.90;;;;;;4431429;32;20156;-59
2023/12/06 03:46:26;;;;;;;1.60;1.50;;;1.70;99.90;;;;;;4432357;32;20076;-60
2023/12/06 03:48:51;;;;;;;1.83;1.67;;;1.70;99.90;;;;;;4431380;32;20452;-61
2023/12/06 03:51:17;;;;;;;4.07;2.22;;;1.70;99.90;;;;;;4435289;32;20126;-61
2023/12/06 03:53:43;;;;;;;2.65;2.42;;;1.70;99.90;;;;;;4429451;32;20509;-59
2023/12/06 03:56:08;;;;;;;1.95;1.30;;;1.80;99.90;;;;;;4432230;32;20065;-59
2023/12/06 03:58:35;;;;;;;0.80;0.80;;;1.80;99.90;;;;;;4432420;32;20383;-61
2023/12/06 04:01:01;;;;;;;1.60;1.50;;;1.80;99.90;;;;;;4434657;32;20073;-59
2023/12/06 04:03:27;;;;;;;2.80;2.08;;;1.80;99.90;;;;;;4434262;32;20126;-59
2023/12/06 04:05:52;;;;;;;5.87;1.02;;;1.80;99.90;;;;;;4435240;32;20061;-60
2023/12/06 04:08:18;;;;;;;3.47;2.45;;;1.80;99.90;;;;;;4434319;32;20065;-60
2023/12/06 04:10:43;;;;;;;1.95;1.52;;;1.80;99.90;;;;;;4433707;32;20097;-58
2023/12/06 04:13:09;;;;;;;2.40;1.85;;;1.80;99.90;;;;;;4432877;32;20111;-60
2023/12/06 04:15:34;;;;;;;2.90;2.17;;;1.70;99.90;;;;;;4431744;32;20557;-60
2023/12/06 04:18:00;;;;;;;0.68;0.68;;;1.70;99.90;;;;;;4433606;32;20065;-60
2023/12/06 04:20:25;;;;;;;0.90;0.90;;;1.60;99.90;;;;;;4436059;32;20104;-59
2023/12/06 04:22:50;;;;;;;2.87;2.22;;;1.70;99.90;;;;;;4431978;32;20082;-58
2023/12/06 04:25:16;;;;;;;1.58;1.45;;;1.70;99.90;;;;;;4430883;32;20471;-59
2023/12/06 04:27:42;;;;;;;1.12;1.05;;;1.70;99.90;;;;;;4433358;32;20066;-60
2023/12/06 04:30:10;;;;;;;4.03;2.65;;;1.70;99.90;;;;;;4431408;32;20430;-59
2023/12/06 04:32:36;;;;;;;1.12;1.12;;;1.80;99.90;;;;;;4429096;32;20131;-59
2023/12/06 04:35:01;;;;;;;1.35;1.25;;;1.70;99.90;;;;;;4427733;32;20085;-60
2023/12/06 04:37:27;;;;;;;4.95;1.95;;;1.70;99.90;;;;;;4428998;32;20084;-61
2023/12/06 04:39:52;;;;;;;1.20;1.12;;;1.70;99.90;;;;;;4429868;32;20077;-59
2023/12/06 04:42:18;;;;;;;1.70;1.58;;;1.60;99.90;;;;;;4429050;32;20477;-59
2023/12/06 04:44:44;;;;;;;1.67;1.58;;;1.70;99.90;;;;;;4430878;32;20156;-59
2023/12/06 04:47:09;;;;;;;1.58;1.35;;;1.70;99.90;;;;;;4431844;32;20077;-60
2023/12/06 04:49:34;;;;;;;2.10;1.45;;;1.70;99.90;;;;;;4430939;32;20533;-60
2023/12/06 04:52:01;;;;;;;0.73;0.73;;;1.60;99.90;;;;;;4431472;32;20058;-59
2023/12/06 04:54:26;;;;;;;0.68;0.68;;;1.60;99.90;;;;;;4429485;32;20125;-60
2023/12/06 04:56:52;;;;;;;1.00;1.00;;;1.60;99.90;;;;;;4429583;32;20506;-60
2023/12/06 04:59:17;;;;;;;2.95;1.70;;;1.60;99.90;;;;;;4430595;32;20065;-60
2023/12/06 05:04:08;;;;;;;1.10;1.10;;;1.60;99.90;;;;;;4429103;32;20119;-61
2023/12/06 05:06:33;;;;;;;0.73;0.73;;;1.60;99.90;;;;;;4429398;32;20050;-60
2023/12/06 05:08:59;;;;;;;2.05;1.60;;;1.60;99.90;;;;;;4425867;32;20138;-60
2023/12/06 05:11:24;;;;;;;1.67;1.58;;;1.60;99.90;;;;;;4428871;32;20057;-58
2023/12/06 05:13:50;;;;;;;3.12;2.53;;;1.60;99.90;;;;;;4428435;32;20094;-59
2023/12/06 05:16:15;;;;;;;3.22;1.30;;;1.70;99.90;;;;;;4428758;32;20157;-59
2023/12/06 05:18:41;;;;;;;2.37;1.50;;;1.70;99.90;;;;;;4427666;32;20526;-58
2023/12/06 05:21:06;;;;;;;0.65;0.65;;;1.60;99.90;;;;;;4425895;32;20093;-60
2023/12/06 05:23:31;;;;;;;2.40;2.20;;;1.70;99.90;;;;;;4429235;32;20177;-61
2023/12/06 05:25:57;;;;;;;4.00;3.08;;;1.60;99.90;;;;;;4427893;32;20479;-59
2023/12/06 05:28:22;;;;;;;12.32;4.10;;;1.60;99.90;;;;;;4431784;32;20507;-59
2023/12/06 05:30:48;;;;;;;1.65;1.55;;;1.60;99.90;;;;;;4427669;32;20072;-57
2023/12/06 05:33:14;;;;;;;5.68;2.17;;;1.60;99.90;;;;;;4428274;32;20062;-59
2023/12/06 05:35:39;;;;;;;1.12;1.05;;;1.60;99.90;;;;;;4429313;32;20085;-60
2023/12/06 05:38:05;;;;;;;5.53;1.42;;;1.70;99.90;;;;;;4430283;32;20080;-58
2023/12/06 05:40:32;;;;;;;1.42;1.27;;;1.70;99.90;;;;;;4430302;32;20400;-59
2023/12/06 05:42:58;;;;;;;6.62;1.90;;;1.70;99.90;;;;;;4414267;32;20069;-60
2023/12/06 05:45:26;;;;;;;4.45;2.47;;;1.70;99.90;;;;;;4430999;32;20098;-60
2023/12/06 05:47:51;;;;;;;1.52;1.15;;;1.70;99.90;;;;;;4430732;32;20053;-58
2023/12/06 05:50:16;;;;;;;2.05;1.90;;;1.70;99.90;;;;;;4429857;32;20116;-59
2023/12/06 05:52:42;;;;;;;1.00;1.00;;;1.70;99.90;;;;;;4428075;32;20125;-60
2023/12/06 05:55:08;;;;;;;1.62;1.40;;;1.60;99.90;;;;;;4431680;32;20074;-59
2023/12/06 05:57:33;;;;;;;0.93;0.77;;;1.60;99.90;;;;;;4426730;32;20682;-58
2023/12/06 05:59:59;;;;;;;1.02;1.02;;;1.70;99.90;;;;;;4428162;32;20058;-59
2023/12/06 06:02:24;;;;;;;9.98;3.40;;;1.70;99.90;;;;;;4428132;32;20065;-56
2023/12/06 06:04:50;;;;;;;7.65;2.12;;;1.60;99.90;;;;;;4428148;32;20054;-56
2023/12/06 06:07:16;;;;;;;0.90;0.90;;;1.70;99.90;;;;;;4418632;32;20076;-58
2023/12/06 06:09:42;;;;;;;1.20;1.15;;;1.70;99.90;;;;;;4427454;32;20074;-60
2023/12/06 06:12:07;;;;;;;1.42;1.33;;;1.70;99.90;;;;;;4427828;32;20069;-58
2023/12/06 06:14:33;;;;;;;2.28;1.75;;;1.70;99.90;;;;;;4416559;32;20069;-56
2023/12/06 06:16:59;;;;;;;2.12;1.52;;;1.70;99.90;;;;;;4431106;32;20069;-57
2023/12/06 06:19:24;;;;;;;15.45;2.05;;;1.70;99.90;;;;;;4426594;32;20081;-59
2023/12/06 06:21:50;;;;;;;4.15;2.65;;;1.60;99.90;;;;;;4417417;32;20785;-58
2023/12/06 06:24:15;;;;;;;3.28;2.70;;;1.60;99.90;;;;;;4427805;32;20560;-57
2023/12/06 06:26:41;;;;;;;1.98;1.83;;;1.60;99.90;;;;;;4412801;32;20170;-61
2023/12/06 06:29:08;;;;;;;1.00;1.00;;;1.60;99.90;;;;;;4421623;32;20097;-58
2023/12/06 06:31:34;;;;;;;3.30;2.08;;;1.70;99.90;;;;;;4421024;32;20440;-57
2023/12/06 06:34:02;;;;;;;1.30;1.20;;;1.70;99.90;;;;;;4420258;32;20846;-59
2023/12/06 06:36:28;;;;;;;2.60;1.75;;;1.70;99.90;;;;;;4419268;32;20080;-61
2023/12/06 06:38:55;;;;;;;2.60;1.30;;;1.70;99.90;;;;;;4422649;32;20080;-61
2023/12/06 06:41:20;;;;;;;9.60;2.25;;;1.70;99.90;;;;;;4422252;32;20505;-60
2023/12/06 06:43:46;;;;;;;1.05;1.05;;;1.70;99.90;;;;;;4424817;32;20450;-61
2023/12/06 06:46:12;;;;;;;1.10;1.00;;;1.70;99.90;;;;;;4426418;32;20769;-61
2023/12/06 06:48:38;;;;;;;1.70;1.27;;;1.60;99.90;;;;;;4422004;32;20118;-59
2023/12/06 06:51:04;;;;;;;1.15;1.12;;;1.60;99.90;;;;;;4423365;32;20576;-58
2023/12/06 06:53:29;;;;;;;0.80;0.80;;;1.60;99.90;;;;;;4417076;32;20064;-62
2023/12/06 06:55:55;;;;;;;2.85;1.70;;;1.60;99.90;;;;;;4409725;32;21282;-60
2023/12/06 06:58:20;;;;;;;14.20;2.10;;;1.60;99.90;;;;;;4394613;32;20913;-60
2023/12/06 07:00:46;;;;;;;1.60;1.50;;;1.60;99.90;;;;;;4403886;32;20592;-57
2023/12/06 07:03:11;;;;;;;3.65;1.65;;;1.60;99.90;;;;;;4408823;32;20101;-60
2023/12/06 07:05:37;;;;;;;1.87;1.55;;;1.70;99.90;;;;;;4408783;32;20132;-59
2023/12/06 07:08:03;;;;;;;2.58;1.87;;;1.70;99.90;;;;;;4407936;32;20076;-59
2023/12/06 07:10:28;;;;;;;2.40;2.03;;;1.70;99.90;;;;;;4407883;32;20074;-58
2023/12/06 07:12:54;;;;;;;0.77;0.77;;;1.60;99.90;;;;;;4412640;32;21408;-59
2023/12/06 07:15:19;;;;;;;1.52;1.45;;;1.70;99.90;;;;;;4403234;32;20201;-56
2023/12/06 07:17:46;;;;;;;6.10;3.75;;;1.70;99.90;;;;;;4401098;32;20086;-60
2023/12/06 07:20:12;;;;;;;1.48;1.40;;;1.70;99.90;;;;;;4409378;32;20209;-58
2023/12/06 07:22:38;;;;;;;0.82;0.82;;;1.70;99.90;;;;;;4412509;32;20073;-58
2023/12/06 07:25:05;;;;;;;1.60;1.50;;;1.70;99.90;;;;;;4411557;32;20124;-57
2023/12/06 07:27:30;;;;;;;5.95;2.30;;;1.70;99.90;;;;;;4402973;32;20366;-56
2023/12/06 07:29:56;;;;;;;1.85;1.17;;;1.70;99.90;;;;;;4401366;32;20152;-58
2023/12/06 07:32:21;;;;;;;1.08;1.08;;;1.70;99.90;;;;;;4409347;32;20145;-55
2023/12/06 07:34:47;;;;;;;1.80;1.70;;;1.70;99.90;;;;;;4403318;32;20077;-60
2023/12/06 07:37:13;;;;;;;0.95;0.88;;;1.70;99.90;;;;;;4409988;32;20556;-60
2023/12/06 07:39:38;;;;;;;1.23;0.77;;;1.70;99.90;;;;;;4413132;32;20065;-57
2023/12/06 07:42:04;;;;;;;6.50;1.92;;;1.70;99.90;;;;;;4409046;32;20062;-59
2023/12/06 07:44:29;;;;;;;1.40;1.30;;;1.70;99.90;;;;;;4404455;32;20089;-60
2023/12/06 07:46:55;;;;;;;1.98;1.85;;;1.70;99.90;;;;;;4407908;32;20080;-59
2023/12/06 07:49:20;;;;;;;0.77;0.77;;;1.70;99.90;;;;;;4402223;32;20097;-57
2023/12/06 07:51:46;;;;;;;0.77;0.77;;;1.60;99.90;;;;;;4410800;32;20081;-57
2023/12/06 07:54:11;;;;;;;3.53;2.58;;;1.70;99.90;;;;;;4394010;32;20097;-59
2023/12/06 07:56:37;;;;;;;1.25;1.17;;;1.70;99.90;;;;;;4396856;32;20192;-59
2023/12/06 07:59:02;;;;;;;1.48;1.37;;;1.70;99.90;;;;;;4390010;32;20189;-58
2023/12/06 08:01:31;;;;;;;18.58;1.98;;;1.70;99.90;;;;;;4403696;32;20532;-60
2023/12/06 08:03:57;;;;;;;4.80;2.50;;;1.80;99.90;;;;;;4400843;32;20110;-59
2023/12/06 08:06:23;;;;;;;2.83;1.70;;;1.70;99.90;;;;;;4412407;32;20533;-59
2023/12/06 08:08:50;;;;;;;4.12;1.87;;;1.70;99.90;;;;;;4409727;32;20172;-59
2023/12/06 08:11:16;;;;;;;4.80;2.10;;;1.70;99.90;;;;;;4409842;32;20073;-58
2023/12/06 08:13:42;;;;;;;1.65;1.55;;;1.70;99.90;;;;;;4410078;32;20105;-58
2023/12/06 08:16:07;;;;;;;1.85;1.15;;;1.70;99.90;;;;;;4405062;32;20081;-58
2023/12/06 08:18:33;;;;;;;3.00;1.95;;;1.70;99.90;;;;;;4410095;32;20159;-56
2023/12/06 08:20:58;;;;;;;1.15;1.05;;;1.70;99.90;;;;;;4412727;32;20085;-57
2023/12/06 08:23:24;;;;;;;1.30;1.23;;;1.70;99.90;;;;;;4410270;32;20097;-56
2023/12/06 08:25:50;;;;;;;5.50;2.12;;;1.70;99.90;;;;;;4407802;32;20115;-58
2023/12/06 08:28:16;;;;;;;1.35;1.25;;;1.80;99.90;;;;;;4407198;32;20098;-55
2023/12/06 08:30:41;;;;;;;1.45;1.35;;;1.70;99.90;;;;;;4400327;32;20132;-57
2023/12/06 08:33:07;;;;;;;5.50;2.03;;;1.80;99.90;;;;;;4402655;32;20101;-58
2023/12/06 08:35:32;;;;;;;0.82;0.82;;;1.80;99.90;;;;;;4394429;32;20881;-58
2023/12/06 08:37:58;;;;;;;7.03;2.17;;;1.80;99.90;;;;;;4406876;32;20169;-59
2023/12/06 08:40:26;;;;;;;2.20;1.48;;;1.70;99.90;;;;;;4401639;32;21649;-57
2023/12/06 08:42:52;;;;;;;6.95;2.10;;;1.70;99.90;;;;;;4402368;32;20105;-60
2023/12/06 08:45:17;;;;;;;2.33;1.33;;;1.80;99.90;;;;;;4407509;32;20093;-59
2023/12/06 08:47:43;;;;;;;1.37;1.27;;;1.70;99.90;;;;;;4398098;32;20110;-59
2023/12/06 08:50:09;;;;;;;0.90;0.90;;;1.70;99.90;;;;;;4390950;32;20982;-58
2023/12/06 08:52:34;;;;;;;2.25;2.05;;;1.70;99.90;;;;;;4392962;32;20124;-58
2023/12/06 08:55:00;;;;;;;1.05;1.05;;;1.80;99.90;;;;;;4396889;32;20105;-57
2023/12/06 08:57:27;;;;;;;3.20;1.85;;;1.80;99.90;;;;;;4400639;32;20290;-60
2023/12/06 08:59:53;;;;;;;0.70;0.70;;;1.90;99.90;;;;;;4397792;32;20084;-56
2023/12/06 09:02:18;;;;;;;4.60;2.87;;;1.80;99.90;;;;;;4394381;32;20073;-56
2023/12/06 09:04:44;;;;;;;2.03;1.77;;;1.80;99.90;;;;;;4406360;32;20767;-58
2023/12/06 09:07:09;;;;;;;9.77;3.15;;;1.80;99.90;;;;;;4399821;32;20089;-59
2023/12/06 09:09:34;;;;;;;1.20;1.02;;;1.80;99.90;;;;;;4390939;32;20311;-59
2023/12/06 09:12:00;;;;;;;1.30;1.23;;;1.80;99.90;;;;;;4385847;32;20418;-60
2023/12/06 09:14:26;;;;;;;1.02;1.00;;;1.80;99.90;;;;;;4389012;32;20080;-57
2023/12/06 09:16:52;;;;;;;3.53;1.35;;;1.80;99.90;;;;;;4391871;32;20122;-60
2023/12/06 09:19:17;;;;;;;2.12;0.80;;;1.80;99.90;;;;;;4392707;32;20176;-59
2023/12/06 09:21:45;;;;;;;1.20;1.10;;;1.90;99.90;;;;;;4399211;32;20097;-61
2023/12/06 09:24:12;;;;;;;1.45;1.35;;;1.80;99.90;;;;;;4395176;32;20764;-61
2023/12/06 09:26:39;;;;;;;1.48;1.08;;;1.80;99.90;;;;;;4392158;32;26891;-57
2023/12/06 09:29:06;;;;;;;1.45;1.35;;;1.80;99.90;;;;;;4392743;32;20089;-58
2023/12/06 09:31:33;;;;;;;6.47;1.55;;;1.90;99.90;;;;;;4384938;32;20093;-59
2023/12/06 09:33:59;;;;;;;1.40;1.30;;;2.00;99.90;;;;;;4402231;32;20817;-58
2023/12/06 09:36:25;;;;;;;2.58;1.70;;;2.00;99.90;;;;;;4390485;32;20646;-56
2023/12/06 09:38:52;;;;;;;2.40;2.00;;;2.00;99.90;;;;;;4397216;32;20093;-59
2023/12/06 09:41:19;;;;;;;0.80;0.80;;;2.00;99.90;;;;;;4391047;32;20298;-59
2023/12/06 09:43:45;;;;;;;10.75;1.77;;;1.90;99.90;;;;;;4397601;32;20096;-58
2023/12/06 09:46:13;;;;;;;2.03;1.80;;;2.00;99.90;;;;;;4394749;32;21839;-57
2023/12/06 09:48:39;;;;;;;3.00;2.12;;;2.00;99.90;;;;;;4397033;32;20068;-59
2023/12/06 09:51:05;;;;;;;1.00;1.00;;;2.00;99.90;;;;;;4396123;32;20454;-60
2023/12/06 09:53:30;;;;;;;1.25;1.15;;;2.00;99.90;;;;;;4395627;32;20084;-59
2023/12/06 09:55:57;;;;;;;1.95;1.40;;;1.90;99.90;;;;;;4391995;32;20093;-58
2023/12/06 09:58:22;;;;;;;0.85;0.85;;;1.90;99.90;;;;;;4397415;32;20072;-59
2023/12/06 10:00:48;;;;;;;1.15;1.10;;;1.90;99.90;;;;;;4391175;32;20137;-59
2023/12/06 10:03:15;;;;;;;1.17;1.12;;;1.90;99.90;;;;;;4396304;32;20296;-59
2023/12/06 10:05:41;;;;;;;4.78;2.47;;;1.90;99.90;;;;;;4391986;32;20073;-60
2023/12/06 10:08:07;;;;;;;4.53;2.65;;;2.00;99.90;;;;;;4392510;32;20085;-60
2023/12/06 10:10:32;;;;;;;3.78;2.40;;;2.00;99.90;;;;;;4392853;32;20152;-59
2023/12/06 10:12:58;;;;;;;1.85;1.37;;;2.00;99.90;;;;;;4397373;32;20698;-60
2023/12/06 10:15:35;;;;;;;1.67;1.10;;;2.00;99.90;;;;;;4390873;32;20081;-59
2023/12/06 10:18:00;;;;;;;1.35;0.93;;;2.10;99.90;;;;;;4378620;32;20112;-60
2023/12/06 10:20:26;;;;;;;3.37;1.83;;;2.00;99.90;;;;;;4382688;32;20104;-60
2023/12/06 10:22:51;;;;;;;2.92;2.50;;;2.00;99.90;;;;;;4387563;32;20611;-59
2023/12/06 10:25:17;;;;;;;1.33;1.25;;;2.10;99.90;;;;;;4387771;32;20686;-58
2023/12/06 10:27:45;;;;;;;1.10;1.05;;;2.20;99.90;;;;;;4388186;32;20147;-58
2023/12/06 10:30:11;;;;;;;2.47;1.62;;;2.20;99.90;;;;;;4390532;32;20661;-57
2023/12/06 10:32:36;;;;;;;3.70;2.17;;;2.10;99.90;;;;;;4389327;32;20824;-59
2023/12/06 10:35:05;;;;;;;0.60;0.60;;;2.20;99.90;;;;;;4392268;32;20137;-60
2023/12/06 10:37:31;;;;;;;1.23;1.15;;;2.10;99.90;;;;;;4389459;32;20082;-57
2023/12/06 10:40:01;;;;;;;0.80;0.80;;;2.10;99.90;;;;;;4392148;32;21708;-56
2023/12/06 10:42:33;;;;;;;2.92;1.73;;;2.10;99.90;;;;;;4396767;32;20085;-59
2023/12/06 10:45:00;;;;;;;3.53;1.75;;;2.20;99.90;;;;;;4399554;32;21037;-57
2023/12/06 10:47:26;;;;;;;3.40;1.55;;;2.20;99.90;;;;;;4400756;32;20085;-57
2023/12/06 10:49:54;;;;;;;3.75;1.37;;;2.20;99.90;;;;;;4405354;32;22695;-58
2023/12/06 10:52:20;;;;;;;11.68;2.95;;;2.10;99.90;;;;;;4403641;32;20501;-59
2023/12/06 10:54:46;;;;;;;1.98;1.80;;;2.00;99.90;;;;;;4403435;32;20974;-60
2023/12/06 10:57:13;;;;;;;1.45;1.33;;;2.00;99.90;;;;;;4404168;32;20339;-58
2023/12/06 10:59:39;;;;;;;0.60;0.60;;;2.10;99.90;;;;;;4407867;32;20438;-60
2023/12/06 11:02:07;;;;;;;0.60;0.60;;;2.00;99.90;;;;;;4388397;32;20092;-60
2023/12/06 11:04:38;;;;;;;0.80;0.80;;;2.00;99.90;;;;;;4405144;32;20077;-59
2023/12/06 11:07:24;;;;;;;0.73;0.73;;;2.00;99.90;;;;;;4397537;32;22006;-60
2023/12/06 11:10:11;;;;;;;3.45;1.25;;;2.00;99.90;;;;;;4400324;32;20339;-61
2023/12/06 11:12:49;;;;;;;4.87;2.37;;;2.10;99.90;;;;;;4394809;32;20106;-60
2023/12/06 11:15:49;;;;;;;0.62;0.62;;;2.10;99.90;;;;;;4387495;32;20721;-60
2023/12/06 11:18:20;;;;;;;0.95;0.95;;;2.10;99.90;;;;;;4395865;32;20677;-59
2023/12/06 11:20:46;;;;;;;2.08;1.60;;;2.00;99.90;;;;;;4399711;32;20081;-57
2023/12/06 11:23:12;;;;;;;2.30;1.35;;;2.10;99.90;;;;;;4411932;32;20915;-59
2023/12/06 11:25:44;;;;;;;4.37;1.75;;;2.10;99.90;;;;;;4408625;32;21095;-60
2023/12/06 11:28:13;;;;;;;0.90;0.85;;;2.10;99.90;;;;;;4411543;32;20085;-56
2023/12/06 11:31:00;;;;;;;1.23;0.82;;;2.10;99.90;;;;;;4403948;32;20082;-60
2023/12/06 11:33:26;;;;;;;0.95;0.95;;;2.10;99.90;;;;;;4392152;32;20351;-59
2023/12/06 11:35:54;;;;;;;1.12;1.05;;;2.10;99.90;;;;;;4407522;32;20466;-58
2023/12/06 11:38:40;;;;;;;0.95;0.95;;;2.10;99.90;;;;;;4419368;32;20078;-59
2023/12/06 11:41:05;;;;;;;4.78;1.92;;;2.10;99.90;;;;;;4416297;32;20251;-58
2023/12/06 11:43:32;;;;;;;3.03;2.05;;;2.10;99.90;;;;;;4415388;32;20581;-59
2023/12/06 11:46:07;;;;;;;2.47;2.05;;;2.10;99.90;;;;;;4416655;32;20069;-61
2023/12/06 11:48:35;;;;;;;0.77;0.77;;;2.10;99.90;;;;;;4395642;32;20122;-60
2023/12/06 11:51:03;;;;;;;5.72;1.92;;;2.00;99.90;;;;;;4412357;32;83301;-61
2023/12/06 11:53:29;;;;;;;0.60;0.60;;;2.00;99.90;;;;;;4390369;32;20147;-59
2023/12/06 11:55:55;;;;;;;3.60;1.15;;;1.90;99.90;;;;;;4405033;32;20492;-61
2023/12/06 11:58:21;;;;;;;0.98;0.98;;;2.00;99.90;;;;;;4392424;32;20240;-58
2023/12/06 12:00:51;;;;;;;0.75;0.75;;;2.10;99.90;;;;;;4404044;32;20077;-59
2023/12/06 12:03:17;;;;;;;1.75;1.65;;;2.10;99.90;;;;;;4393263;32;20081;-59
2023/12/06 12:05:43;;;;;;;5.93;1.92;;;2.00;99.90;;;;;;4388321;32;20673;-60
2023/12/06 12:08:10;;;;;;;1.25;1.15;;;2.10;99.90;;;;;;4392450;32;20179;-59
2023/12/06 12:10:36;;;;;;;14.10;2.35;;;2.10;99.90;;;;;;4388638;32;20081;-60
2023/12/06 12:13:01;;;;;;;3.92;2.42;;;2.10;99.90;;;;;;4378683;32;20883;-60
2023/12/06 12:15:28;;;;;;;4.97;1.85;;;2.00;99.90;;;;;;4379181;32;20963;-59
2023/12/06 12:17:54;;;;;;;1.50;1.23;;;2.10;99.90;;;;;;4380400;32;20120;-60
2023/12/06 12:20:20;;;;;;;2.78;1.62;;;2.10;99.90;;;;;;4399826;32;20143;-61
2023/12/06 12:22:48;;;;;;;2.28;1.90;;;2.10;99.90;;;;;;4402539;32;21338;-60
2023/12/06 12:25:15;;;;;;;0.75;0.75;;;2.10;99.90;;;;;;4393135;32;20081;-59
2023/12/06 12:27:43;;;;;;;0.70;0.70;;;2.10;99.90;;;;;;4395634;32;20085;-61
2023/12/06 12:30:09;;;;;;;6.35;2.83;;;2.20;99.90;;;;;;4380156;32;21093;-61
2023/12/06 12:32:38;;;;;;;3.80;1.62;;;2.10;99.90;;;;;;4386400;32;20077;-61
2023/12/06 12:35:05;;;;;;;5.25;2.15;;;2.10;99.90;;;;;;4388078;32;20073;-60
2023/12/06 12:37:31;;;;;;;2.35;2.15;;;2.00;99.90;;;;;;4391994;32;20148;-60
2023/12/06 12:39:56;;;;;;;16.02;2.35;;;2.00;99.90;;;;;;4388813;32;21344;-61
2023/12/06 12:42:24;;;;;;;3.10;2.35;;;2.00;99.90;;;;;;4383154;32;20098;-60
2023/12/06 12:44:50;;;;;;;0.60;0.60;;;2.00;99.90;;;;;;4393410;32;20261;-60
2023/12/06 12:47:16;;;;;;;4.82;2.25;;;2.00;99.90;;;;;;4394560;32;20070;-59
2023/12/06 12:49:41;;;;;;;2.05;1.80;;;2.00;99.90;;;;;;4403164;32;20368;-61
2023/12/06 12:52:08;;;;;;;1.35;1.25;;;2.00;99.90;;;;;;4405534;32;20093;-59
2023/12/06 12:54:36;;;;;;;0.77;0.77;;;2.00;99.90;;;;;;4401599;32;20519;-60